Tinkerbell Mar — 9HBA9 — position and weather

sailwx.info

Track history (hours):
 
Tides and Currents Weather Stations Pressure Air Temp Water Temp Dewpoint Dewpoint Depression Visibility Wind Speed Wind Dir Waves Ship Positions

Tinkerbell Mar

Last reported at 2018-Apr-07 13:33 UTC. Time now 2018-Jun-18 00:13 UTC.
Position N 37°38' E 023°45'.
Warning: this ship's position is months out of date.

Length 102 m; draft 5 m.

Type: Ship. MMSI: 256707000.

Date/timePositionNaut miles runAvg speedWind from/ knotsBaromVisibWave heightAir tempDewpointWater temp
2018-Apr-07 13:33N 37°38' E 023°45'112.1
2018-Apr-07 13:29N 37°38' E 023°45'612.1
2018-Apr-07 13:01N 37°43' E 023°40'612.3
2018-Apr-07 12:31N 37°48' E 023°37'611.9
2018-Apr-07 12:01N 37°54' E 023°36'3 5.5
2018-Apr-07 11:26N 37°58' E 023°37'0 0.0
2018-Apr-07 10:59N 37°58' E 023°37'0 0.0
2018-Apr-07 10:29N 37°58' E 023°37'0 0.0
2018-Apr-07 09:56N 37°58' E 023°37'0 0.0
2018-Apr-07 09:29N 37°58' E 023°37'0 0.0
2018-Apr-07 08:59N 37°58' E 023°37'0 0.0
2018-Apr-07 08:29N 37°58' E 023°37'0 0.0
2018-Apr-07 07:59N 37°58' E 023°37'0 0.0
2018-Apr-07 07:29N 37°58' E 023°37'0 0.0
2018-Apr-07 06:59N 37°58' E 023°37'0 0.0
2018-Apr-07 06:29N 37°58' E 023°37'0 0.0
2018-Apr-07 06:00N 37°58' E 023°37'1 2.8
2018-Apr-07 05:30N 37°56' E 023°36'2 4.0
2018-Apr-07 05:00N 37°54' E 023°36'0 0.8
2018-Apr-07 04:30N 37°54' E 023°36'0 0.7
2018-Apr-07 04:00N 37°55' E 023°36'1 1.7
2018-Apr-07 03:30N 37°54' E 023°35'1 1.2
2018-Apr-07 03:00N 37°54' E 023°36'3 5.2
2018-Apr-07 02:30N 37°52' E 023°38'4 8.7
2018-Apr-07 02:00N 37°48' E 023°41'4 8.8
2018-Apr-07 01:30N 37°44' E 023°43'4 8.9
2018-Apr-07 01:00N 37°40' E 023°46'5 9.1
2018-Apr-07 00:30N 37°37' E 023°50'34810.1
2018-Apr-05 13:57N 35°10' E 030°21'712.3
2018-Apr-05 13:23N 35°08' E 030°29'512.2
2018-Apr-05 13:00N 35°07' E 030°35'612.3
2018-Apr-05 12:30N 35°05' E 030°42'612.4
2018-Apr-05 12:00N 35°03' E 030°49'612.5
2018-Apr-05 11:30N 35°01' E 030°56'612.6
2018-Apr-05 11:00N 34°59' E 031°04'612.5
2018-Apr-05 10:30N 34°57' E 031°11'612.5
2018-Apr-05 10:00N 34°55' E 031°18'612.7
2018-Apr-05 09:30N 34°53' E 031°26'712.7
2018-Apr-05 08:58N 34°51' E 031°34'612.7
2018-Apr-05 08:30N 34°49' E 031°40'612.7
2018-Apr-05 08:00N 34°47' E 031°48'612.7
2018-Apr-05 07:30N 34°45' E 031°55'612.5
2018-Apr-05 07:00N 34°43' E 032°02'612.6
2018-Apr-05 06:30N 34°41' E 032°10'612.8
2018-Apr-05 06:00N 34°39' E 032°17'713.3
2018-Apr-05 05:30N 34°37' E 032°25'713.3
2018-Apr-05 05:00N 34°35' E 032°32'2112.7
2018-Apr-05 03:23N 34°29' E 032°56'1512.5
2018-Apr-05 02:11N 34°25' E 033°14'612.4
2018-Apr-05 01:43N 34°24' E 033°21'312.5
2018-Apr-05 01:27N 34°23' E 033°25'612.5
2018-Apr-05 01:00N 34°21' E 033°31'1012.6
2018-Apr-05 00:14N 34°17' E 033°42'312.5
2018-Apr-04 23:58N 34°16' E 033°46'2812.4
2018-Apr-04 21:45N 34°08' E 034°18'312.4
2018-Apr-04 21:28N 34°07' E 034°21'1312.2
2018-Apr-04 20:27N 34°03' E 034°36'512.0
2018-Apr-04 20:00N 34°02' E 034°42'611.7
2018-Apr-04 19:30N 34°00' E 034°49'  
2018-Apr-01 20:22N 37°37' E 023°47'412.1
2018-Apr-01 20:00N 37°39' E 023°43'612.4
2018-Apr-01 19:30N 37°45' E 023°39'611.8
2018-Apr-01 19:00N 37°51' E 023°37'611.1
2018-Apr-01 18:30N 37°56' E 023°36'1 2.7
2018-Apr-01 18:00N 37°58' E 023°37'0 0.0
2018-Apr-01 17:30N 37°58' E 023°37'0 0.0
2018-Apr-01 17:00N 37°58' E 023°37'0 0.0
2018-Apr-01 16:30N 37°58' E 023°37'0 0.0
2018-Apr-01 16:00N 37°58' E 023°37'0 0.0
2018-Apr-01 15:30N 37°58' E 023°37'0 0.0
2018-Apr-01 15:00N 37°58' E 023°37'0 0.0
2018-Apr-01 14:30N 37°58' E 023°37'0 0.0
2018-Apr-01 14:00N 37°58' E 023°37'0 0.0
2018-Apr-01 13:30N 37°58' E 023°37'0 0.0
2018-Apr-01 13:00N 37°58' E 023°37'0 0.0
2018-Apr-01 12:30N 37°58' E 023°37'0 0.0
2018-Apr-01 12:00N 37°58' E 023°37'0 0.0
2018-Apr-01 11:30N 37°58' E 023°37'0 0.0
2018-Apr-01 11:00N 37°58' E 023°37'0 0.0
2018-Apr-01 10:30N 37°58' E 023°37'0 0.0
2018-Apr-01 10:00N 37°58' E 023°37'0 0.0
2018-Apr-01 09:30N 37°58' E 023°37'0 0.0
2018-Apr-01 09:00N 37°58' E 023°37'0 0.0
2018-Apr-01 08:27N 37°58' E 023°37'0 0.0
2018-Apr-01 08:00N 37°58' E 023°37'3 5.1
2018-Apr-01 07:30N 37°55' E 023°35'2 4.1
2018-Apr-01 07:00N 37°55' E 023°33'0 0.1
2018-Apr-01 06:30N 37°55' E 023°33'0 0.0
2018-Apr-01 06:00N 37°55' E 023°33'0 0.0
2018-Apr-01 05:30N 37°55' E 023°33'0 0.0
2018-Apr-01 05:00N 37°55' E 023°33'0 0.0
2018-Apr-01 04:30N 37°55' E 023°33'0 0.0
2018-Apr-01 04:00N 37°55' E 023°33'0 0.0
2018-Apr-01 03:30N 37°55' E 023°33'0 0.0
2018-Apr-01 03:00N 37°55' E 023°33'0 0.0
2018-Apr-01 02:27N 37°55' E 023°33'0 0.1
2018-Apr-01 02:00N 37°55' E 023°33'0 0.0
2018-Apr-01 01:30N 37°55' E 023°33'0 0.0
2018-Apr-01 01:00N 37°55' E 023°33'0 0.1
2018-Apr-01 00:30N 37°55' E 023°33'0 0.0
2018-Apr-01 00:00N 37°55' E 023°33'0 0.0
2018-Mar-31 23:30N 37°55' E 023°33'0 0.0
2018-Mar-31 23:00N 37°55' E 023°33'0 0.0
2018-Mar-31 22:30N 37°55' E 023°33'0 0.0
2018-Mar-31 22:00N 37°55' E 023°33'0 0.0
2018-Mar-31 21:30N 37°55' E 023°33'0 0.0
2018-Mar-31 21:00N 37°55' E 023°33'0 0.1
2018-Mar-31 20:30N 37°55' E 023°33'0 0.0
2018-Mar-31 20:00N 37°55' E 023°33'0 0.0
2018-Mar-31 19:30N 37°55' E 023°33'0 0.0
2018-Mar-31 19:00N 37°55' E 023°33'0 0.0
2018-Mar-31 18:30N 37°55' E 023°33'0 0.0
2018-Mar-31 18:00N 37°55' E 023°33'0 0.0
2018-Mar-31 17:30N 37°55' E 023°33'0 0.0
2018-Mar-31 17:00N 37°55' E 023°33'0 0.0
2018-Mar-31 16:30N 37°55' E 023°33'0 0.0
2018-Mar-31 16:00N 37°55' E 023°33'0 0.0
2018-Mar-31 15:30N 37°55' E 023°33'0 0.0
2018-Mar-31 15:00N 37°55' E 023°33'0 0.0
2018-Mar-31 14:30N 37°55' E 023°33'0 0.0
2018-Mar-31 14:00N 37°55' E 023°33'0 0.0
2018-Mar-31 13:30N 37°55' E 023°33'0 0.1
2018-Mar-31 13:00N 37°55' E 023°33'0 0.0
2018-Mar-31 12:30N 37°55' E 023°33'0 0.0
2018-Mar-31 12:00N 37°55' E 023°33'0 0.0
2018-Mar-31 11:30N 37°55' E 023°33'0 0.0
2018-Mar-31 11:00N 37°55' E 023°33'0 0.0
2018-Mar-31 10:30N 37°55' E 023°33'0 0.0
2018-Mar-31 10:00N 37°55' E 023°33'0 0.0
2018-Mar-31 09:30N 37°55' E 023°33'0 0.0
2018-Mar-31 09:00N 37°55' E 023°33'0 0.0
2018-Mar-31 08:30N 37°55' E 023°33'0 0.0
2018-Mar-31 08:00N 37°55' E 023°33'0 0.0
2018-Mar-31 07:30N 37°55' E 023°33'0 0.0
2018-Mar-31 07:00N 37°55' E 023°33'0 0.0
2018-Mar-31 06:30N 37°55' E 023°33'0 0.0
2018-Mar-31 06:00N 37°55' E 023°33'0 0.0
2018-Mar-31 05:30N 37°55' E 023°33'0 0.0
2018-Mar-31 04:57N 37°55' E 023°33'0 0.0
2018-Mar-31 04:30N 37°55' E 023°33'0 0.0
2018-Mar-31 04:00N 37°55' E 023°33'0 0.0
2018-Mar-31 03:30N 37°55' E 023°33'0 0.0
2018-Mar-31 03:00N 37°55' E 023°33'0 0.0
2018-Mar-31 02:30N 37°55' E 023°33'0 0.0
2018-Mar-31 02:00N 37°55' E 023°33'0 0.0
2018-Mar-31 01:30N 37°55' E 023°33'0 0.0
2018-Mar-31 01:00N 37°55' E 023°33'0 0.0
2018-Mar-31 00:30N 37°55' E 023°33'0 0.0
2018-Mar-31 00:00N 37°55' E 023°33'0 0.0
2018-Mar-30 23:30N 37°55' E 023°33'0 0.0
2018-Mar-30 23:00N 37°55' E 023°33'0 0.0
2018-Mar-30 22:30N 37°55' E 023°33'0 0.0
2018-Mar-30 22:00N 37°55' E 023°33'0 0.1
2018-Mar-30 21:30N 37°55' E 023°33'0 0.0
2018-Mar-30 21:00N 37°55' E 023°33'0 0.0
2018-Mar-30 20:30N 37°55' E 023°33'0 0.0
2018-Mar-30 20:00N 37°55' E 023°33'0 0.0
2018-Mar-30 19:30N 37°55' E 023°33'0 0.0
2018-Mar-30 19:00N 37°55' E 023°33'0 0.0
2018-Mar-30 18:30N 37°55' E 023°33'0 0.0
2018-Mar-30 18:00N 37°55' E 023°33'0 0.0
2018-Mar-30 17:30N 37°55' E 023°33'0 0.0
2018-Mar-30 17:00N 37°55' E 023°33'0 0.0
2018-Mar-30 16:30N 37°55' E 023°33'0 0.0
2018-Mar-30 16:00N 37°55' E 023°33'0 0.0
2018-Mar-30 15:30N 37°55' E 023°33'0 0.0
2018-Mar-30 15:00N 37°55' E 023°33'0 0.0
2018-Mar-30 14:30N 37°55' E 023°33'0 0.0
2018-Mar-30 14:00N 37°55' E 023°33'0 0.0
2018-Mar-30 13:30N 37°55' E 023°33'0 0.0
2018-Mar-30 13:00N 37°55' E 023°33'0 0.0
2018-Mar-30 12:30N 37°55' E 023°33'0 0.0
2018-Mar-30 12:00N 37°55' E 023°33'0 0.0
2018-Mar-30 11:30N 37°55' E 023°33'0 0.0
2018-Mar-30 11:00N 37°55' E 023°33'0 0.0
2018-Mar-30 10:30N 37°55' E 023°33'0 0.0
2018-Mar-30 10:00N 37°55' E 023°33'0 0.0
2018-Mar-30 09:30N 37°55' E 023°33'0 0.0
2018-Mar-30 08:57N 37°55' E 023°33'0 0.0
2018-Mar-30 08:30N 37°55' E 023°33'0 0.0
2018-Mar-30 08:00N 37°55' E 023°33'0 0.0
2018-Mar-30 07:30N 37°55' E 023°33'0 0.0
2018-Mar-30 07:00N 37°55' E 023°33'0 0.0
2018-Mar-30 06:30N 37°55' E 023°33'0 0.0
2018-Mar-30 06:00N 37°55' E 023°33'0 0.0
2018-Mar-30 05:30N 37°55' E 023°33'0 0.0
2018-Mar-30 05:00N 37°55' E 023°33'0 0.0
2018-Mar-30 04:30N 37°55' E 023°33'0 0.0
2018-Mar-30 04:00N 37°55' E 023°33'0 0.1
2018-Mar-30 03:30N 37°55' E 023°33'0 0.1
2018-Mar-30 03:00N 37°55' E 023°33'0 0.0
2018-Mar-30 02:30N 37°55' E 023°33'0 0.0
2018-Mar-30 02:00N 37°55' E 023°33'0 0.0
2018-Mar-30 01:30N 37°55' E 023°33'0 0.0
2018-Mar-30 01:00N 37°55' E 023°33'0 0.0
2018-Mar-30 00:30N 37°55' E 023°33'0 0.0
2018-Mar-30 00:00N 37°55' E 023°33'0 0.0
2018-Mar-29 23:30N 37°55' E 023°33'0 0.1
2018-Mar-29 23:00N 37°55' E 023°33'0 0.0
2018-Mar-29 22:30N 37°55' E 023°33'0 0.0
2018-Mar-29 22:00N 37°55' E 023°33'0 0.0
2018-Mar-29 21:30N 37°55' E 023°33'0 0.0
2018-Mar-29 21:00N 37°55' E 023°33'0 0.0
2018-Mar-29 20:30N 37°55' E 023°33'0 0.0
2018-Mar-29 20:00N 37°55' E 023°33'0 0.0
2018-Mar-29 19:30N 37°55' E 023°33'0 0.0
2018-Mar-29 19:00N 37°55' E 023°33'0 0.0
2018-Mar-29 18:30N 37°55' E 023°33'0 0.0
2018-Mar-29 18:00N 37°55' E 023°33'0 0.0
2018-Mar-29 17:30N 37°55' E 023°33'0 0.0
2018-Mar-29 17:00N 37°55' E 023°33'0 0.0
2018-Mar-29 16:24N 37°55' E 023°33'0 0.1
2018-Mar-29 16:00N 37°55' E 023°33'0 0.0
2018-Mar-29 15:30N 37°55' E 023°33'0 0.1
2018-Mar-29 15:00N 37°55' E 023°33'0 0.0
2018-Mar-29 14:30N 37°55' E 023°33'0 0.0
2018-Mar-29 14:00N 37°55' E 023°33'0 0.0
2018-Mar-29 13:30N 37°55' E 023°33'0 0.0
2018-Mar-29 13:00N 37°55' E 023°33'0 0.1
2018-Mar-29 12:30N 37°55' E 023°33'0 0.1
2018-Mar-29 12:00N 37°55' E 023°33'0 0.0
2018-Mar-29 11:30N 37°55' E 023°33'0 0.1
2018-Mar-29 11:00N 37°55' E 023°33'0 0.1
2018-Mar-29 10:30N 37°55' E 023°33'0 0.0
2018-Mar-29 10:00N 37°55' E 023°33'0 0.1
2018-Mar-29 09:30N 37°55' E 023°33'0 0.0
2018-Mar-29 09:00N 37°55' E 023°33'0 0.1
2018-Mar-29 08:30N 37°55' E 023°33'0 0.1
2018-Mar-29 08:00N 37°55' E 023°33'0 0.1
2018-Mar-29 07:30N 37°55' E 023°33'0 0.1
2018-Mar-29 07:00N 37°55' E 023°33'0 0.0
2018-Mar-29 06:30N 37°55' E 023°33'0 0.0
2018-Mar-29 06:00N 37°55' E 023°33'0 0.0
2018-Mar-29 05:30N 37°55' E 023°33'0 0.0
2018-Mar-29 05:00N 37°55' E 023°33'0 0.0
2018-Mar-29 04:30N 37°55' E 023°33'0 0.1
2018-Mar-29 04:00N 37°55' E 023°33'0 0.0
2018-Mar-29 03:30N 37°55' E 023°33'0 0.0
2018-Mar-29 03:00N 37°55' E 023°33'0 0.0
2018-Mar-29 02:30N 37°55' E 023°33'0 0.0
2018-Mar-29 01:57N 37°55' E 023°33'0 0.1
2018-Mar-29 01:30N 37°55' E 023°33'0 0.0
2018-Mar-29 00:57N 37°55' E 023°33'0 0.0
2018-Mar-29 00:30N 37°55' E 023°33'0 0.1
2018-Mar-29 00:00N 37°55' E 023°33'0 0.1
2018-Mar-28 23:30N 37°55' E 023°33'0 0.1
2018-Mar-28 23:00N 37°55' E 023°33'0 0.1
2018-Mar-28 22:30N 37°55' E 023°33'0 0.0
2018-Mar-28 22:00N 37°55' E 023°33'0 0.0
2018-Mar-28 21:30N 37°55' E 023°33'0 0.0
2018-Mar-28 21:00N 37°55' E 023°33'0 0.0
2018-Mar-28 20:30N 37°55' E 023°33'0 0.0
2018-Mar-28 20:00N 37°55' E 023°33'0 0.0
2018-Mar-28 19:30N 37°55' E 023°33'0 0.0
2018-Mar-28 19:00N 37°55' E 023°33'0 0.0
2018-Mar-28 18:30N 37°55' E 023°33'0 0.1
2018-Mar-28 18:00N 37°55' E 023°33'0 0.0
2018-Mar-28 17:30N 37°55' E 023°33'0 0.1
2018-Mar-28 17:00N 37°55' E 023°33'0 0.1
2018-Mar-28 16:30N 37°55' E 023°33'0 0.1
2018-Mar-28 16:00N 37°55' E 023°33'0 0.1
2018-Mar-28 15:30N 37°55' E 023°33'0 0.0
2018-Mar-28 15:00N 37°55' E 023°33'0 0.0
2018-Mar-28 14:30N 37°55' E 023°33'0 0.0
2018-Mar-28 14:00N 37°55' E 023°33'  
Track history (hours):
 
Tides and Currents Weather Stations Pressure Air Temp Water Temp Dewpoint Dewpoint Depression Visibility Wind Speed Wind Dir Waves Ship Positions

Tinkerbell Mar

Last reported at 2018-Apr-07 13:33 UTC. Time now 2018-Jun-18 00:13 UTC.
Position N 37°38' E 023°45'.
Warning: this ship's position is months out of date.

Length 102 m; draft 5 m.

Type: Ship. MMSI: 256707000.

Date/timePositionNaut miles runAvg speedWind from/ knotsBaromVisibWave heightAir tempDewpointWater temp
2018-Apr-07 13:33N 37°38' E 023°45'112.1
2018-Apr-07 13:29N 37°38' E 023°45'612.1
2018-Apr-07 13:01N 37°43' E 023°40'612.3
2018-Apr-07 12:31N 37°48' E 023°37'611.9
2018-Apr-07 12:01N 37°54' E 023°36'3 5.5
2018-Apr-07 11:26N 37°58' E 023°37'0 0.0
2018-Apr-07 10:59N 37°58' E 023°37'0 0.0
2018-Apr-07 10:29N 37°58' E 023°37'0 0.0
2018-Apr-07 09:56N 37°58' E 023°37'0 0.0
2018-Apr-07 09:29N 37°58' E 023°37'0 0.0
2018-Apr-07 08:59N 37°58' E 023°37'0 0.0
2018-Apr-07 08:29N 37°58' E 023°37'0 0.0
2018-Apr-07 07:59N 37°58' E 023°37'0 0.0
2018-Apr-07 07:29N 37°58' E 023°37'0 0.0
2018-Apr-07 06:59N 37°58' E 023°37'0 0.0
2018-Apr-07 06:29N 37°58' E 023°37'0 0.0
2018-Apr-07 06:00N 37°58' E 023°37'1 2.8
2018-Apr-07 05:30N 37°56' E 023°36'2 4.0
2018-Apr-07 05:00N 37°54' E 023°36'0 0.8
2018-Apr-07 04:30N 37°54' E 023°36'0 0.7
2018-Apr-07 04:00N 37°55' E 023°36'1 1.7
2018-Apr-07 03:30N 37°54' E 023°35'1 1.2
2018-Apr-07 03:00N 37°54' E 023°36'3 5.2
2018-Apr-07 02:30N 37°52' E 023°38'4 8.7
2018-Apr-07 02:00N 37°48' E 023°41'4 8.8
2018-Apr-07 01:30N 37°44' E 023°43'4 8.9
2018-Apr-07 01:00N 37°40' E 023°46'5 9.1
2018-Apr-07 00:30N 37°37' E 023°50'34810.1
2018-Apr-05 13:57N 35°10' E 030°21'712.3
2018-Apr-05 13:23N 35°08' E 030°29'512.2
2018-Apr-05 13:00N 35°07' E 030°35'612.3
2018-Apr-05 12:30N 35°05' E 030°42'612.4
2018-Apr-05 12:00N 35°03' E 030°49'612.5
2018-Apr-05 11:30N 35°01' E 030°56'612.6
2018-Apr-05 11:00N 34°59' E 031°04'612.5
2018-Apr-05 10:30N 34°57' E 031°11'612.5
2018-Apr-05 10:00N 34°55' E 031°18'612.7
2018-Apr-05 09:30N 34°53' E 031°26'712.7
2018-Apr-05 08:58N 34°51' E 031°34'612.7
2018-Apr-05 08:30N 34°49' E 031°40'612.7
2018-Apr-05 08:00N 34°47' E 031°48'612.7
2018-Apr-05 07:30N 34°45' E 031°55'612.5
2018-Apr-05 07:00N 34°43' E 032°02'612.6
2018-Apr-05 06:30N 34°41' E 032°10'612.8
2018-Apr-05 06:00N 34°39' E 032°17'713.3
2018-Apr-05 05:30N 34°37' E 032°25'713.3
2018-Apr-05 05:00N 34°35' E 032°32'2112.7
2018-Apr-05 03:23N 34°29' E 032°56'1512.5
2018-Apr-05 02:11N 34°25' E 033°14'612.4
2018-Apr-05 01:43N 34°24' E 033°21'312.5
2018-Apr-05 01:27N 34°23' E 033°25'612.5
2018-Apr-05 01:00N 34°21' E 033°31'1012.6
2018-Apr-05 00:14N 34°17' E 033°42'312.5
2018-Apr-04 23:58N 34°16' E 033°46'2812.4
2018-Apr-04 21:45N 34°08' E 034°18'312.4
2018-Apr-04 21:28N 34°07' E 034°21'1312.2
2018-Apr-04 20:27N 34°03' E 034°36'512.0
2018-Apr-04 20:00N 34°02' E 034°42'611.7
2018-Apr-04 19:30N 34°00' E 034°49'  
2018-Apr-01 20:22N 37°37' E 023°47'412.1
2018-Apr-01 20:00N 37°39' E 023°43'612.4
2018-Apr-01 19:30N 37°45' E 023°39'611.8
2018-Apr-01 19:00N 37°51' E 023°37'611.1
2018-Apr-01 18:30N 37°56' E 023°36'1 2.7
2018-Apr-01 18:00N 37°58' E 023°37'0 0.0
2018-Apr-01 17:30N 37°58' E 023°37'0 0.0
2018-Apr-01 17:00N 37°58' E 023°37'0 0.0
2018-Apr-01 16:30N 37°58' E 023°37'0 0.0
2018-Apr-01 16:00N 37°58' E 023°37'0 0.0
2018-Apr-01 15:30N 37°58' E 023°37'0 0.0
2018-Apr-01 15:00N 37°58' E 023°37'0 0.0
2018-Apr-01 14:30N 37°58' E 023°37'0 0.0
2018-Apr-01 14:00N 37°58' E 023°37'0 0.0
2018-Apr-01 13:30N 37°58' E 023°37'0 0.0
2018-Apr-01 13:00N 37°58' E 023°37'0 0.0
2018-Apr-01 12:30N 37°58' E 023°37'0 0.0
2018-Apr-01 12:00N 37°58' E 023°37'0 0.0
2018-Apr-01 11:30N 37°58' E 023°37'0 0.0
2018-Apr-01 11:00N 37°58' E 023°37'0 0.0
2018-Apr-01 10:30N 37°58' E 023°37'0 0.0
2018-Apr-01 10:00N 37°58' E 023°37'0 0.0
2018-Apr-01 09:30N 37°58' E 023°37'0 0.0
2018-Apr-01 09:00N 37°58' E 023°37'0 0.0
2018-Apr-01 08:27N 37°58' E 023°37'0 0.0
2018-Apr-01 08:00N 37°58' E 023°37'3 5.1
2018-Apr-01 07:30N 37°55' E 023°35'2 4.1
2018-Apr-01 07:00N 37°55' E 023°33'0 0.1
2018-Apr-01 06:30N 37°55' E 023°33'0 0.0
2018-Apr-01 06:00N 37°55' E 023°33'0 0.0
2018-Apr-01 05:30N 37°55' E 023°33'0 0.0
2018-Apr-01 05:00N 37°55' E 023°33'0 0.0
2018-Apr-01 04:30N 37°55' E 023°33'0 0.0
2018-Apr-01 04:00N 37°55' E 023°33'0 0.0
2018-Apr-01 03:30N 37°55' E 023°33'0 0.0
2018-Apr-01 03:00N 37°55' E 023°33'0 0.0
2018-Apr-01 02:27N 37°55' E 023°33'0 0.1
2018-Apr-01 02:00N 37°55' E 023°33'0 0.0
2018-Apr-01 01:30N 37°55' E 023°33'0 0.0
2018-Apr-01 01:00N 37°55' E 023°33'0 0.1
2018-Apr-01 00:30N 37°55' E 023°33'0 0.0
2018-Apr-01 00:00N 37°55' E 023°33'0 0.0
2018-Mar-31 23:30N 37°55' E 023°33'0 0.0
2018-Mar-31 23:00N 37°55' E 023°33'0 0.0
2018-Mar-31 22:30N 37°55' E 023°33'0 0.0
2018-Mar-31 22:00N 37°55' E 023°33'0 0.0
2018-Mar-31 21:30N 37°55' E 023°33'0 0.0
2018-Mar-31 21:00N 37°55' E 023°33'0 0.1
2018-Mar-31 20:30N 37°55' E 023°33'0 0.0
2018-Mar-31 20:00N 37°55' E 023°33'0 0.0
2018-Mar-31 19:30N 37°55' E 023°33'0 0.0
2018-Mar-31 19:00N 37°55' E 023°33'0 0.0
2018-Mar-31 18:30N 37°55' E 023°33'0 0.0
2018-Mar-31 18:00N 37°55' E 023°33'0 0.0
2018-Mar-31 17:30N 37°55' E 023°33'0 0.0
2018-Mar-31 17:00N 37°55' E 023°33'0 0.0
2018-Mar-31 16:30N 37°55' E 023°33'0 0.0
2018-Mar-31 16:00N 37°55' E 023°33'0 0.0
2018-Mar-31 15:30N 37°55' E 023°33'0 0.0
2018-Mar-31 15:00N 37°55' E 023°33'0 0.0
2018-Mar-31 14:30N 37°55' E 023°33'0 0.0
2018-Mar-31 14:00N 37°55' E 023°33'0 0.0
2018-Mar-31 13:30N 37°55' E 023°33'0 0.1
2018-Mar-31 13:00N 37°55' E 023°33'0 0.0
2018-Mar-31 12:30N 37°55' E 023°33'0 0.0
2018-Mar-31 12:00N 37°55' E 023°33'0 0.0
2018-Mar-31 11:30N 37°55' E 023°33'0 0.0
2018-Mar-31 11:00N 37°55' E 023°33'0 0.0
2018-Mar-31 10:30N 37°55' E 023°33'0 0.0
2018-Mar-31 10:00N 37°55' E 023°33'0 0.0
2018-Mar-31 09:30N 37°55' E 023°33'0 0.0
2018-Mar-31 09:00N 37°55' E 023°33'0 0.0
2018-Mar-31 08:30N 37°55' E 023°33'0 0.0
2018-Mar-31 08:00N 37°55' E 023°33'0 0.0
2018-Mar-31 07:30N 37°55' E 023°33'0 0.0
2018-Mar-31 07:00N 37°55' E 023°33'0 0.0
2018-Mar-31 06:30N 37°55' E 023°33'0 0.0
2018-Mar-31 06:00N 37°55' E 023°33'0 0.0
2018-Mar-31 05:30N 37°55' E 023°33'0 0.0
2018-Mar-31 04:57N 37°55' E 023°33'0 0.0
2018-Mar-31 04:30N 37°55' E 023°33'0 0.0
2018-Mar-31 04:00N 37°55' E 023°33'0 0.0
2018-Mar-31 03:30N 37°55' E 023°33'0 0.0
2018-Mar-31 03:00N 37°55' E 023°33'0 0.0
2018-Mar-31 02:30N 37°55' E 023°33'0 0.0
2018-Mar-31 02:00N 37°55' E 023°33'0 0.0
2018-Mar-31 01:30N 37°55' E 023°33'0 0.0
2018-Mar-31 01:00N 37°55' E 023°33'0 0.0
2018-Mar-31 00:30N 37°55' E 023°33'0 0.0
2018-Mar-31 00:00N 37°55' E 023°33'0 0.0
2018-Mar-30 23:30N 37°55' E 023°33'0 0.0
2018-Mar-30 23:00N 37°55' E 023°33'0 0.0
2018-Mar-30 22:30N 37°55' E 023°33'0 0.0
2018-Mar-30 22:00N 37°55' E 023°33'0 0.1
2018-Mar-30 21:30N 37°55' E 023°33'0 0.0
2018-Mar-30 21:00N 37°55' E 023°33'0 0.0
2018-Mar-30 20:30N 37°55' E 023°33'0 0.0
2018-Mar-30 20:00N 37°55' E 023°33'0 0.0
2018-Mar-30 19:30N 37°55' E 023°33'0 0.0
2018-Mar-30 19:00N 37°55' E 023°33'0 0.0
2018-Mar-30 18:30N 37°55' E 023°33'0 0.0
2018-Mar-30 18:00N 37°55' E 023°33'0 0.0
2018-Mar-30 17:30N 37°55' E 023°33'0 0.0
2018-Mar-30 17:00N 37°55' E 023°33'0 0.0
2018-Mar-30 16:30N 37°55' E 023°33'0 0.0
2018-Mar-30 16:00N 37°55' E 023°33'0 0.0
2018-Mar-30 15:30N 37°55' E 023°33'0 0.0
2018-Mar-30 15:00N 37°55' E 023°33'0 0.0
2018-Mar-30 14:30N 37°55' E 023°33'0 0.0
2018-Mar-30 14:00N 37°55' E 023°33'0 0.0
2018-Mar-30 13:30N 37°55' E 023°33'0 0.0
2018-Mar-30 13:00N 37°55' E 023°33'0 0.0
2018-Mar-30 12:30N 37°55' E 023°33'0 0.0
2018-Mar-30 12:00N 37°55' E 023°33'0 0.0
2018-Mar-30 11:30N 37°55' E 023°33'0 0.0
2018-Mar-30 11:00N 37°55' E 023°33'0 0.0
2018-Mar-30 10:30N 37°55' E 023°33'0 0.0
2018-Mar-30 10:00N 37°55' E 023°33'0 0.0
2018-Mar-30 09:30N 37°55' E 023°33'0 0.0
2018-Mar-30 08:57N 37°55' E 023°33'0 0.0
2018-Mar-30 08:30N 37°55' E 023°33'0 0.0
2018-Mar-30 08:00N 37°55' E 023°33'0 0.0
2018-Mar-30 07:30N 37°55' E 023°33'0 0.0
2018-Mar-30 07:00N 37°55' E 023°33'0 0.0
2018-Mar-30 06:30N 37°55' E 023°33'0 0.0
2018-Mar-30 06:00N 37°55' E 023°33'0 0.0
2018-Mar-30 05:30N 37°55' E 023°33'0 0.0
2018-Mar-30 05:00N 37°55' E 023°33'0 0.0
2018-Mar-30 04:30N 37°55' E 023°33'0 0.0
2018-Mar-30 04:00N 37°55' E 023°33'0 0.1
2018-Mar-30 03:30N 37°55' E 023°33'0 0.1
2018-Mar-30 03:00N 37°55' E 023°33'0 0.0
2018-Mar-30 02:30N 37°55' E 023°33'0 0.0
2018-Mar-30 02:00N 37°55' E 023°33'0 0.0
2018-Mar-30 01:30N 37°55' E 023°33'0 0.0
2018-Mar-30 01:00N 37°55' E 023°33'0 0.0
2018-Mar-30 00:30N 37°55' E 023°33'0 0.0
2018-Mar-30 00:00N 37°55' E 023°33'0 0.0
2018-Mar-29 23:30N 37°55' E 023°33'0 0.1
2018-Mar-29 23:00N 37°55' E 023°33'0 0.0
2018-Mar-29 22:30N 37°55' E 023°33'0 0.0
2018-Mar-29 22:00N 37°55' E 023°33'0 0.0
2018-Mar-29 21:30N 37°55' E 023°33'0 0.0
2018-Mar-29 21:00N 37°55' E 023°33'0 0.0
2018-Mar-29 20:30N 37°55' E 023°33'0 0.0
2018-Mar-29 20:00N 37°55' E 023°33'0 0.0
2018-Mar-29 19:30N 37°55' E 023°33'0 0.0
2018-Mar-29 19:00N 37°55' E 023°33'0 0.0
2018-Mar-29 18:30N 37°55' E 023°33'0 0.0
2018-Mar-29 18:00N 37°55' E 023°33'0 0.0
2018-Mar-29 17:30N 37°55' E 023°33'0 0.0
2018-Mar-29 17:00N 37°55' E 023°33'0 0.0
2018-Mar-29 16:24N 37°55' E 023°33'0 0.1
2018-Mar-29 16:00N 37°55' E 023°33'0 0.0
2018-Mar-29 15:30N 37°55' E 023°33'0 0.1
2018-Mar-29 15:00N 37°55' E 023°33'0 0.0
2018-Mar-29 14:30N 37°55' E 023°33'0 0.0
2018-Mar-29 14:00N 37°55' E 023°33'0 0.0
2018-Mar-29 13:30N 37°55' E 023°33'0 0.0
2018-Mar-29 13:00N 37°55' E 023°33'0 0.1
2018-Mar-29 12:30N 37°55' E 023°33'0 0.1
2018-Mar-29 12:00N 37°55' E 023°33'0 0.0
2018-Mar-29 11:30N 37°55' E 023°33'0 0.1
2018-Mar-29 11:00N 37°55' E 023°33'0 0.1
2018-Mar-29 10:30N 37°55' E 023°33'0 0.0
2018-Mar-29 10:00N 37°55' E 023°33'0 0.1
2018-Mar-29 09:30N 37°55' E 023°33'0 0.0
2018-Mar-29 09:00N 37°55' E 023°33'0 0.1
2018-Mar-29 08:30N 37°55' E 023°33'0 0.1
2018-Mar-29 08:00N 37°55' E 023°33'0 0.1
2018-Mar-29 07:30N 37°55' E 023°33'0 0.1
2018-Mar-29 07:00N 37°55' E 023°33'0 0.0
2018-Mar-29 06:30N 37°55' E 023°33'0 0.0
2018-Mar-29 06:00N 37°55' E 023°33'0 0.0
2018-Mar-29 05:30N 37°55' E 023°33'0 0.0
2018-Mar-29 05:00N 37°55' E 023°33'0 0.0
2018-Mar-29 04:30N 37°55' E 023°33'0 0.1
2018-Mar-29 04:00N 37°55' E 023°33'0 0.0
2018-Mar-29 03:30N 37°55' E 023°33'0 0.0
2018-Mar-29 03:00N 37°55' E 023°33'0 0.0
2018-Mar-29 02:30N 37°55' E 023°33'0 0.0
2018-Mar-29 01:57N 37°55' E 023°33'0 0.1
2018-Mar-29 01:30N 37°55' E 023°33'0 0.0
2018-Mar-29 00:57N 37°55' E 023°33'0 0.0
2018-Mar-29 00:30N 37°55' E 023°33'0 0.1
2018-Mar-29 00:00N 37°55' E 023°33'0 0.1
2018-Mar-28 23:30N 37°55' E 023°33'0 0.1
2018-Mar-28 23:00N 37°55' E 023°33'0 0.1
2018-Mar-28 22:30N 37°55' E 023°33'0 0.0
2018-Mar-28 22:00N 37°55' E 023°33'0 0.0
2018-Mar-28 21:30N 37°55' E 023°33'0 0.0
2018-Mar-28 21:00N 37°55' E 023°33'0 0.0
2018-Mar-28 20:30N 37°55' E 023°33'0 0.0
2018-Mar-28 20:00N 37°55' E 023°33'0 0.0
2018-Mar-28 19:30N 37°55' E 023°33'0 0.0
2018-Mar-28 19:00N 37°55' E 023°33'0 0.0
2018-Mar-28 18:30N 37°55' E 023°33'0 0.1
2018-Mar-28 18:00N 37°55' E 023°33'0 0.0
2018-Mar-28 17:30N 37°55' E 023°33'0 0.1
2018-Mar-28 17:00N 37°55' E 023°33'0 0.1
2018-Mar-28 16:30N 37°55' E 023°33'0 0.1
2018-Mar-28 16:00N 37°55' E 023°33'0 0.1
2018-Mar-28 15:30N 37°55' E 023°33'0 0.0
2018-Mar-28 15:00N 37°55' E 023°33'0 0.0
2018-Mar-28 14:30N 37°55' E 023°33'0 0.0
2018-Mar-28 14:00N 37°55' E 023°33'  

Dump ship's entire track history